Time;durP1;ratioP1;P1;durP2;ratioP2;P2;SDS_P1;SDS_P2;PMS_P1;PMS_P2;Temp;Humidity;BMP_temperature;BMP_pressure;BME280_temperature;BME280_humidity;BME280_pressure;Samples;Min_cycle;Max_cycle;Signal;HPM_P1;HPM_P2
2023/12/20 00:00:40;;;;;;;15.40;9.38;;;-0.20;74.10;;;;;;5072793;28;20067;-75
2023/12/20 00:03:06;;;;;;;13.52;7.45;;;-0.20;73.60;;;;;;5073703;28;20382;-72
2023/12/20 00:05:32;;;;;;;12.63;8.15;;;-0.20;74.20;;;;;;5056392;28;20064;-75
2023/12/20 00:07:58;;;;;;;10.73;6.45;;;-0.20;74.20;;;;;;5074582;28;20074;-75
2023/12/20 00:10:24;;;;;;;12.32;6.53;;;-0.30;74.20;;;;;;5073814;28;20040;-75
2023/12/20 00:12:50;;;;;;;10.98;6.72;;;-0.30;74.30;;;;;;5073245;28;20094;-74
2023/12/20 00:15:16;;;;;;;12.07;5.80;;;-0.30;74.20;;;;;;5073109;28;20029;-75
2023/12/20 00:17:42;;;;;;;12.75;4.63;;;-0.30;74.30;;;;;;5074792;28;20048;-72
2023/12/20 00:20:09;;;;;;;15.93;6.97;;;-0.30;74.20;;;;;;5074044;28;20433;-74
2023/12/20 00:22:35;;;;;;;13.05;8.60;;;-0.40;73.90;;;;;;5074469;28;20040;-71
2023/12/20 00:25:01;;;;;;;13.95;6.70;;;-0.40;74.10;;;;;;5073093;28;20047;-72
2023/12/20 00:27:27;;;;;;;28.30;15.77;;;-0.40;74.10;;;;;;5074225;28;20032;-71
2023/12/20 00:29:53;;;;;;;23.45;12.55;;;-0.40;74.00;;;;;;5073268;28;20040;-72
2023/12/20 00:32:19;;;;;;;15.82;10.23;;;-0.40;74.10;;;;;;5072407;28;20557;-73
2023/12/20 00:34:45;;;;;;;15.27;12.07;;;-0.40;74.10;;;;;;5074509;28;20029;-74
2023/12/20 00:37:11;;;;;;;18.55;10.90;;;-0.40;73.90;;;;;;5074049;28;20063;-72
2023/12/20 00:39:37;;;;;;;16.05;10.68;;;-0.40;73.80;;;;;;5072921;28;20037;-75
2023/12/20 00:42:03;;;;;;;10.52;5.70;;;-0.40;73.60;;;;;;5072126;28;20043;-75
2023/12/20 00:44:29;;;;;;;;;;;-0.30;73.50;;;;;;5074550;28;20029;-75
2023/12/20 00:46:55;;;;;;;12.43;7.18;;;-0.30;73.40;;;;;;5089347;28;20369;-72
2023/12/20 00:49:22;;;;;;;20.38;8.52;;;-0.30;73.20;;;;;;5072753;28;20450;-72
2023/12/20 00:51:50;;;;;;;13.35;6.82;;;-0.20;73.20;;;;;;5071952;28;20044;-72
2023/12/20 00:54:16;;;;;;;14.25;7.88;;;-0.30;73.40;;;;;;5072525;28;20059;-72
2023/12/20 00:56:42;;;;;;;15.38;10.57;;;-0.30;72.70;;;;;;5073381;28;20036;-75
2023/12/20 00:59:08;;;;;;;16.63;8.05;;;-0.20;73.40;;;;;;5072408;28;20033;-75
2023/12/20 01:01:34;;;;;;;17.88;8.20;;;-0.30;73.40;;;;;;5071787;28;20044;-72
2023/12/20 01:04:00;;;;;;;19.60;8.25;;;-0.30;73.60;;;;;;5072274;28;20116;-74
2023/12/20 01:06:26;;;;;;;26.33;11.15;;;-0.40;73.60;;;;;;5073595;28;20533;-75
2023/12/20 01:08:52;;;;;;;16.42;7.95;;;-0.40;73.50;;;;;;5072270;28;20048;-72
2023/12/20 01:11:18;;;;;;;9.63;5.80;;;-0.40;73.40;;;;;;5071719;28;20037;-72
2023/12/20 01:13:44;;;;;;;15.00;7.63;;;-0.50;73.20;;;;;;5073479;28;20033;-75
2023/12/20 01:16:12;;;;;;;18.58;6.20;;;-0.50;73.20;;;;;;5071875;28;20033;-74
2023/12/20 01:18:38;;;;;;;12.27;6.55;;;-0.60;73.00;;;;;;5071970;28;20040;-72
2023/12/20 01:21:05;;;;;;;13.85;6.75;;;-0.60;73.20;;;;;;5071285;28;20457;-74
2023/12/20 01:23:32;;;;;;;9.05;6.03;;;-0.60;72.60;;;;;;5072873;28;20044;-75
2023/12/20 01:25:59;;;;;;;10.13;6.97;;;-0.70;73.30;;;;;;5071799;28;20039;-71
2023/12/20 01:28:26;;;;;;;8.43;4.30;;;-0.70;73.30;;;;;;5071941;28;20393;-72
2023/12/20 01:30:52;;;;;;;11.73;6.40;;;-0.70;73.40;;;;;;5070991;28;20086;-72
2023/12/20 01:33:18;;;;;;;10.30;6.28;;;-0.70;73.60;;;;;;5055096;28;20322;-75
2023/12/20 01:35:44;;;;;;;9.95;5.55;;;-0.80;73.70;;;;;;5072720;28;20502;-74
2023/12/20 01:38:10;;;;;;;13.88;8.35;;;-0.80;73.80;;;;;;5072743;28;20082;-72
2023/12/20 01:40:36;;;;;;;20.17;8.25;;;-0.80;74.00;;;;;;5070931;28;20102;-72
2023/12/20 01:43:08;;;;;;;14.48;9.18;;;-0.90;74.90;;;;;;5071746;28;20025;-75
2023/12/20 01:45:35;;;;;;;13.35;8.88;;;-0.90;73.90;;;;;;5071081;28;20029;-75
2023/12/20 01:48:02;;;;;;;13.55;7.90;;;-1.00;73.80;;;;;;5072838;28;20043;-72
2023/12/20 01:50:29;;;;;;;19.35;9.60;;;-1.00;74.10;;;;;;5070687;28;20044;-72
2023/12/20 01:52:58;;;;;;;18.00;9.07;;;-1.00;74.40;;;;;;5054934;28;20021;-75
2023/12/20 01:55:25;;;;;;;24.45;10.80;;;-1.00;74.10;;;;;;5070829;28;20116;-74
2023/12/20 01:57:51;;;;;;;25.50;8.15;;;-1.00;74.20;;;;;;5072702;28;20028;-72
2023/12/20 02:00:22;;;;;;;14.18;10.52;;;-1.00;74.20;;;;;;5053795;28;20036;-72
2023/12/20 02:02:50;;;;;;;24.38;10.63;;;-1.00;74.10;;;;;;5071403;28;20040;-75
2023/12/20 02:05:17;;;;;;;15.68;7.68;;;-1.00;73.90;;;;;;5071074;28;20484;-72
2023/12/20 02:07:43;;;;;;;17.90;8.00;;;-1.00;73.90;;;;;;5071275;28;20078;-72
2023/12/20 02:10:09;;;;;;;10.05;6.57;;;-1.00;73.70;;;;;;5070641;28;20189;-75
2023/12/20 02:12:35;;;;;;;11.98;8.52;;;-1.00;73.60;;;;;;5072421;28;20107;-71
2023/12/20 02:15:01;;;;;;;8.23;5.57;;;-1.00;73.40;;;;;;5072108;28;20488;-75
2023/12/20 02:17:29;;;;;;;12.80;6.53;;;-1.00;73.30;;;;;;5071004;28;20119;-72
2023/12/20 02:19:55;;;;;;;17.15;10.07;;;-1.00;73.00;;;;;;5054375;28;20051;-74
2023/12/20 02:22:21;;;;;;;12.77;7.88;;;-1.00;73.10;;;;;;5053713;28;20049;-75
2023/12/20 02:24:47;;;;;;;17.70;9.05;;;-1.00;73.20;;;;;;5072699;28;20409;-72
2023/12/20 02:27:15;;;;;;;18.95;13.52;;;-1.00;73.30;;;;;;5071008;28;20037;-75
2023/12/20 02:29:41;;;;;;;28.27;11.48;;;-1.00;73.20;;;;;;5071034;28;20044;-72
2023/12/20 02:32:07;;;;;;;15.23;7.47;;;-1.00;73.30;;;;;;5071638;28;20498;-75
2023/12/20 02:34:33;;;;;;;16.45;8.95;;;-1.00;73.10;;;;;;5071751;28;20485;-75
2023/12/20 02:36:59;;;;;;;19.63;9.70;;;-1.00;73.20;;;;;;5070647;28;20033;-74
2023/12/20 02:39:25;;;;;;;21.17;11.07;;;-1.00;73.30;;;;;;5070760;28;20028;-72
2023/12/20 02:41:51;;;;;;;20.17;7.82;;;-1.00;73.30;;;;;;5053521;28;20040;-71
2023/12/20 02:44:17;;;;;;;18.17;7.93;;;-1.00;73.20;;;;;;5072121;28;20037;-75
2023/12/20 02:46:43;;;;;;;20.77;10.55;;;-1.00;73.20;;;;;;5071929;28;20502;-73
2023/12/20 02:49:09;;;;;;;20.00;7.45;;;-1.00;73.10;;;;;;5070956;28;20453;-75
2023/12/20 02:51:38;;;;;;;23.20;8.73;;;-1.00;73.00;;;;;;5071605;28;20514;-72
2023/12/20 02:54:05;;;;;;;21.73;9.70;;;-1.00;73.20;;;;;;5072139;28;20037;-72
2023/12/20 02:56:44;;;;;;;13.70;7.30;;;-1.00;72.50;;;;;;5054086;28;20036;-75
2023/12/20 02:59:10;;;;;;;10.23;7.38;;;-1.00;73.00;;;;;;5071829;28;20119;-72
2023/12/20 03:02:00;;;;;;;18.77;9.27;;;-1.00;73.00;;;;;;5069893;28;20032;-72
2023/12/20 03:04:26;;;;;;;18.75;9.05;;;-1.00;72.80;;;;;;5071853;28;20036;-75
2023/12/20 03:06:52;;;;;;;13.32;9.00;;;-1.00;73.20;;;;;;5070667;28;20032;-75
2023/12/20 03:09:18;;;;;;;14.27;7.38;;;-1.00;73.20;;;;;;5070753;28;20566;-75
2023/12/20 03:11:44;;;;;;;18.02;10.63;;;-1.00;73.40;;;;;;5070309;28;20032;-75
2023/12/20 03:14:10;;;;;;;18.33;10.45;;;-1.00;73.50;;;;;;5070517;28;20388;-74
2023/12/20 03:16:36;;;;;;;15.57;7.63;;;-1.00;73.60;;;;;;5070528;28;20039;-72
2023/12/20 03:19:02;;;;;;;9.23;5.60;;;-1.00;73.60;;;;;;5070575;28;20490;-75
2023/12/20 03:21:28;;;;;;;15.25;10.15;;;-1.00;73.70;;;;;;5069769;28;20047;-72
2023/12/20 03:23:54;;;;;;;8.63;5.10;;;-1.00;73.80;;;;;;5072150;28;20127;-75
2023/12/20 03:26:22;;;;;;;13.48;5.60;;;-1.00;74.00;;;;;;5071567;28;20036;-75
2023/12/20 03:28:48;;;;;;;17.05;9.02;;;-1.00;74.00;;;;;;5053985;28;20040;-72
2023/12/20 03:31:14;;;;;;;16.80;10.48;;;-1.00;74.00;;;;;;5069470;28;20052;-72
2023/12/20 03:33:40;;;;;;;13.98;9.27;;;-1.00;74.00;;;;;;5071917;28;20033;-72
2023/12/20 03:36:07;;;;;;;16.83;11.98;;;-1.00;74.20;;;;;;5070117;28;20043;-72
2023/12/20 03:38:33;;;;;;;;;;;-1.00;74.10;;;;;;5070950;28;20067;-71
2023/12/20 03:40:59;;;;;;;11.82;6.38;;;-1.00;73.90;;;;;;5071032;28;20015;-72
2023/12/20 03:43:25;;;;;;;20.38;8.05;;;-1.00;73.60;;;;;;5070301;28;20082;-72
2023/12/20 03:45:52;;;;;;;36.20;10.73;;;-1.00;73.60;;;;;;5070257;28;20032;-73
2023/12/20 03:48:18;;;;;;;29.35;9.90;;;-1.00;73.80;;;;;;5073875;28;20436;-72
2023/12/20 03:50:44;;;;;;;13.27;8.13;;;-1.10;73.90;;;;;;5073186;28;20035;-75
2023/12/20 03:53:10;;;;;;;34.88;9.68;;;-1.10;73.80;;;;;;5074015;28;20086;-72
2023/12/20 03:55:36;;;;;;;;;;;-1.10;73.70;;;;;;5073935;28;20040;-74
2023/12/20 03:58:02;;;;;;;9.65;5.68;;;-1.20;73.80;;;;;;5074824;28;20285;-75
2023/12/20 04:00:28;;;;;;;16.02;5.85;;;-1.20;73.90;;;;;;5074230;28;20457;-75
2023/12/20 04:02:54;;;;;;;12.88;6.88;;;-1.30;73.90;;;;;;5074814;28;20024;-72
2023/12/20 04:05:20;;;;;;;9.05;5.53;;;-1.20;74.30;;;;;;5074406;28;20056;-71
2023/12/20 04:07:46;;;;;;;16.88;6.25;;;-1.30;74.30;;;;;;5074664;28;20039;-75
2023/12/20 04:10:12;;;;;;;13.05;8.13;;;-1.30;74.30;;;;;;5072662;28;20493;-76
2023/12/20 04:12:38;;;;;;;22.60;8.27;;;-1.30;74.30;;;;;;5073530;28;20371;-72
2023/12/20 04:15:09;;;;;;;16.60;7.45;;;-1.30;74.30;;;;;;5056591;28;20056;-75
2023/12/20 04:17:36;;;;;;;12.32;8.32;;;-1.30;74.50;;;;;;5074512;28;20033;-75
2023/12/20 04:20:02;;;;;;;14.48;8.63;;;-1.30;74.50;;;;;;5074769;28;20040;-75
2023/12/20 04:22:28;;;;;;;20.23;9.25;;;-1.30;74.60;;;;;;5072805;28;20094;-72
2023/12/20 04:24:54;;;;;;;19.90;8.73;;;-1.30;74.60;;;;;;5073108;28;20037;-72
2023/12/20 04:27:20;;;;;;;13.15;6.70;;;-1.30;74.30;;;;;;5074461;28;20036;-75
2023/12/20 04:29:47;;;;;;;13.75;8.27;;;-1.30;74.20;;;;;;5073203;28;20379;-72
2023/12/20 04:32:13;;;;;;;19.92;10.45;;;-1.40;74.20;;;;;;5072453;28;20120;-75
2023/12/20 04:34:39;;;;;;;11.88;5.90;;;-1.40;74.70;;;;;;5072928;28;20090;-72
2023/12/20 04:37:05;;;;;;;10.20;6.75;;;-1.30;74.90;;;;;;5055892;28;20044;-75
2023/12/20 04:39:31;;;;;;;10.95;6.20;;;-1.30;74.60;;;;;;5074331;28;20490;-75
2023/12/20 04:41:57;;;;;;;;;;;-1.30;74.60;;;;;;5072555;28;20028;-75
2023/12/20 04:44:23;;;;;;;11.73;7.55;;;-1.20;74.60;;;;;;5072764;28;19955;-72
2023/12/20 04:46:49;;;;;;;16.15;8.85;;;-1.30;74.50;;;;;;5072615;28;20558;-72
2023/12/20 04:49:15;;;;;;;12.18;7.78;;;-1.30;74.50;;;;;;5072837;28;20478;-75
2023/12/20 04:51:41;;;;;;;12.70;9.65;;;-1.30;74.70;;;;;;5073451;28;20036;-72
2023/12/20 04:54:07;;;;;;;10.55;5.75;;;-1.30;74.70;;;;;;5072758;28;20109;-75
2023/12/20 04:56:33;;;;;;;15.65;10.45;;;-1.30;74.70;;;;;;5072369;28;20098;-75
2023/12/20 04:59:00;;;;;;;25.20;10.60;;;-1.30;74.60;;;;;;5054866;28;20440;-71
2023/12/20 05:01:26;;;;;;;;;;;-1.30;74.70;;;;;;5055560;28;20093;-72
2023/12/20 05:03:52;;;;;;;9.93;6.82;;;-1.30;74.40;;;;;;5072519;28;19921;-73
2023/12/20 05:06:18;;;;;;;13.77;7.47;;;-1.30;74.20;;;;;;5073551;28;20052;-75
2023/12/20 05:08:44;;;;;;;10.15;9.00;;;-1.30;74.20;;;;;;5073488;28;20098;-75
2023/12/20 05:11:10;;;;;;;7.50;5.38;;;-1.30;74.20;;;;;;5073022;28;20039;-75
2023/12/20 05:13:36;;;;;;;15.90;8.60;;;-1.20;74.00;;;;;;5073449;28;20044;-72
2023/12/20 05:16:02;;;;;;;24.27;10.77;;;-1.30;74.10;;;;;;5071793;28;20089;-72
2023/12/20 05:18:28;;;;;;;16.17;9.68;;;-1.30;74.10;;;;;;5073410;28;20068;-75
2023/12/20 05:20:54;;;;;;;;;;;-1.30;74.20;;;;;;5071902;28;20078;-72
2023/12/20 05:23:20;;;;;;;12.38;5.72;;;-1.30;74.20;;;;;;5055392;28;20393;-75
2023/12/20 05:25:46;;;;;;;10.82;6.22;;;-1.40;73.90;;;;;;5072731;28;20050;-75
2023/12/20 05:28:12;;;;;;;19.33;8.90;;;-1.40;73.90;;;;;;5073190;28;20123;-75
2023/12/20 05:30:38;;;;;;;18.40;8.98;;;-1.30;74.00;;;;;;5071007;28;20025;-72
2023/12/20 05:33:04;;;;;;;10.07;5.53;;;-1.30;73.90;;;;;;5071900;28;20044;-72
2023/12/20 05:35:30;;;;;;;8.88;6.90;;;-1.30;73.80;;;;;;5072819;28;20036;-75
2023/12/20 05:37:56;;;;;;;13.77;8.07;;;-1.30;73.70;;;;;;5073061;28;20020;-72
2023/12/20 05:40:22;;;;;;;12.07;8.07;;;-1.30;73.70;;;;;;5054262;28;20090;-72
2023/12/20 05:42:48;;;;;;;15.80;8.07;;;-1.30;73.90;;;;;;5071691;28;20033;-72
2023/12/20 05:45:15;;;;;;;12.60;8.25;;;-1.30;74.10;;;;;;5072593;28;20036;-72
2023/12/20 05:47:41;;;;;;;11.25;7.13;;;-1.40;74.10;;;;;;5071460;28;20116;-72
2023/12/20 05:50:08;;;;;;;14.68;6.53;;;-1.50;74.10;;;;;;5054492;28;20496;-75
2023/12/20 05:52:34;;;;;;;9.02;6.70;;;-1.50;74.20;;;;;;5071456;28;20020;-75
2023/12/20 05:57:45;;;;;;;20.70;11.68;;;-1.50;74.20;;;;;;5072338;28;20035;-75
2023/12/20 06:00:12;;;;;;;20.23;12.60;;;-1.50;74.10;;;;;;5070442;28;20036;-75
2023/12/20 06:02:38;;;;;;;8.00;5.57;;;-1.60;73.80;;;;;;5072662;28;20036;-75
2023/12/20 06:05:23;;;;;;;21.88;6.90;;;-1.60;73.70;;;;;;5072419;28;20143;-75
2023/12/20 06:07:50;;;;;;;24.17;11.63;;;-1.70;73.70;;;;;;5072202;28;20036;-71
2023/12/20 06:10:17;;;;;;;14.30;7.82;;;-1.70;73.70;;;;;;5070470;28;20104;-72
2023/12/20 06:12:43;;;;;;;11.93;6.85;;;-1.80;72.80;;;;;;5071440;28;20074;-75
2023/12/20 06:15:09;;;;;;;14.90;7.40;;;-1.80;73.40;;;;;;5072527;28;20048;-75
2023/12/20 06:17:35;;;;;;;15.75;9.52;;;-1.80;73.40;;;;;;5072292;28;20032;-73
2023/12/20 06:20:02;;;;;;;14.32;7.80;;;-1.90;73.50;;;;;;5072661;28;20123;-72
2023/12/20 06:22:28;;;;;;;9.48;7.30;;;-1.90;73.50;;;;;;5070754;28;20041;-75
2023/12/20 06:24:54;;;;;;;15.05;8.70;;;-2.00;73.40;;;;;;5072641;28;20041;-75
2023/12/20 06:27:20;;;;;;;14.68;6.60;;;-1.90;73.50;;;;;;5072243;28;20485;-73
2023/12/20 06:29:46;;;;;;;18.33;9.60;;;-1.90;73.50;;;;;;5071214;28;20037;-72
2023/12/20 06:32:12;;;;;;;19.30;7.38;;;-2.00;73.40;;;;;;5070563;28;20086;-72
2023/12/20 06:34:38;;;;;;;10.13;7.05;;;-2.00;73.50;;;;;;5070954;28;20490;-72
2023/12/20 06:37:05;;;;;;;27.00;9.73;;;-2.00;73.70;;;;;;5070651;28;20037;-72
2023/12/20 06:39:31;;;;;;;13.73;9.80;;;-2.00;73.60;;;;;;5071002;28;20044;-73
2023/12/20 06:41:57;;;;;;;19.05;9.65;;;-2.00;73.50;;;;;;5071416;28;20044;-72
2023/12/20 06:44:23;;;;;;;8.05;5.82;;;-2.00;73.70;;;;;;5070743;28;20201;-75
2023/12/20 06:46:49;;;;;;;7.43;4.90;;;-2.00;73.70;;;;;;5070709;28;20047;-72
2023/12/20 06:49:15;;;;;;;;;;;-2.00;73.80;;;;;;5072873;28;20041;-75
2023/12/20 06:51:41;;;;;;;12.15;7.45;;;-2.00;74.00;;;;;;5069947;28;20413;-75
2023/12/20 06:54:07;;;;;;;19.48;8.07;;;-2.10;73.70;;;;;;5072261;28;20101;-75
2023/12/20 06:56:33;;;;;;;10.18;5.57;;;-2.10;73.90;;;;;;5070639;28;20393;-74
2023/12/20 06:58:59;;;;;;;;;;;-2.00;73.70;;;;;;5072649;28;20043;-72
2023/12/20 07:01:25;;;;;;;9.88;5.50;;;-2.00;73.70;;;;;;5053190;28;20296;-73
2023/12/20 07:03:51;;;;;;;23.83;10.65;;;-2.00;73.70;;;;;;5070617;28;20119;-75
2023/12/20 07:06:17;;;;;;;11.73;7.15;;;-2.00;73.60;;;;;;5071803;28;20043;-75
2023/12/20 07:08:43;;;;;;;19.30;8.40;;;-1.90;73.80;;;;;;5070716;28;20033;-74
2023/12/20 07:11:09;;;;;;;14.43;8.57;;;-1.90;73.60;;;;;;5071105;28;20033;-75
2023/12/20 07:13:35;;;;;;;10.73;5.05;;;-1.90;73.40;;;;;;5070602;28;20054;-72
2023/12/20 07:16:01;;;;;;;9.85;5.82;;;-1.90;73.30;;;;;;5070356;28;20036;-75
2023/12/20 07:18:27;;;;;;;17.88;10.65;;;-1.80;73.20;;;;;;5071684;28;20037;-72
2023/12/20 07:20:54;;;;;;;13.98;8.35;;;-1.70;73.00;;;;;;5071385;28;20120;-73
2023/12/20 07:23:21;;;;;;;18.45;10.80;;;-1.80;72.60;;;;;;5075670;28;20393;-75
2023/12/20 07:25:47;;;;;;;19.45;10.38;;;-1.70;72.80;;;;;;5075537;28;20104;-72
2023/12/20 07:28:13;;;;;;;16.90;11.95;;;-1.70;72.80;;;;;;5075584;28;20032;-73
2023/12/20 07:30:39;;;;;;;18.85;11.57;;;-1.70;72.80;;;;;;5074920;28;20081;-72
2023/12/20 07:33:07;;;;;;;;;;;-1.60;72.80;;;;;;5074682;28;20036;-72
2023/12/20 07:35:33;;;;;;;14.43;10.05;;;-1.50;72.80;;;;;;5075252;28;19916;-75
2023/12/20 07:37:59;;;;;;;18.88;11.45;;;-1.50;72.40;;;;;;5075467;28;20367;-75
2023/12/20 07:40:25;;;;;;;15.27;10.40;;;-1.50;72.30;;;;;;5074532;28;20032;-72
2023/12/20 07:42:51;;;;;;;10.38;7.82;;;-1.50;72.20;;;;;;5075282;28;20067;-72
2023/12/20 07:45:17;;;;;;;29.80;7.90;;;-1.40;72.20;;;;;;5074659;28;20032;-73
2023/12/20 07:47:43;;;;;;;17.85;9.38;;;-1.30;72.30;;;;;;5073939;28;20041;-75
2023/12/20 07:50:10;;;;;;;13.25;8.20;;;-1.20;72.00;;;;;;5072950;28;20043;-75
2023/12/20 07:52:36;;;;;;;;;;;-1.00;71.60;;;;;;5074376;28;20036;-74
2023/12/20 07:55:02;;;;;;;17.38;7.82;;;-0.90;71.40;;;;;;5073480;28;19920;-73
2023/12/20 07:57:47;;;;;;;;;;;-0.70;71.30;;;;;;5057605;28;20082;-74
2023/12/20 08:00:13;;;;;;;16.50;6.78;;;-0.60;70.90;;;;;;5074066;28;19920;-73
2023/12/20 08:02:39;;;;;;;18.08;9.95;;;-0.60;70.20;;;;;;5075088;28;20033;-72
2023/12/20 08:05:06;;;;;;;11.85;6.95;;;-0.60;71.00;;;;;;5074872;28;20414;-75
2023/12/20 08:07:32;;;;;;;12.07;7.25;;;-0.60;70.70;;;;;;5073565;28;20111;-75
2023/12/20 08:09:58;;;;;;;10.68;7.13;;;-0.60;71.30;;;;;;5073640;28;20046;-74
2023/12/20 08:12:27;;;;;;;17.10;10.85;;;-0.50;71.60;;;;;;5074062;28;20037;-72
2023/12/20 08:14:54;;;;;;;23.33;11.10;;;-0.50;71.80;;;;;;5073470;28;20099;-72
2023/12/20 08:17:20;;;;;;;31.02;15.32;;;-0.50;71.90;;;;;;5074438;28;20477;-72
2023/12/20 08:19:46;;;;;;;26.67;12.93;;;-0.40;72.10;;;;;;5074601;28;20422;-75
2023/12/20 08:22:12;;;;;;;16.42;11.45;;;-0.30;72.20;;;;;;5073831;28;20485;-72
2023/12/20 08:24:38;;;;;;;19.50;9.25;;;-0.30;72.10;;;;;;5056426;28;20047;-75
2023/12/20 08:27:05;;;;;;;20.48;12.68;;;-0.20;71.90;;;;;;5074181;28;20225;-72
2023/12/20 08:29:31;;;;;;;14.77;8.98;;;-0.10;71.90;;;;;;5072911;28;20497;-72
2023/12/20 08:31:59;;;;;;;28.65;13.65;;;0.00;72.10;;;;;;5073454;28;20033;-72
2023/12/20 08:34:25;;;;;;;39.13;16.73;;;0.10;71.70;;;;;;5055437;28;20079;-73
2023/12/20 08:36:51;;;;;;;20.10;11.75;;;0.10;72.30;;;;;;5073864;28;20095;-73
2023/12/20 08:39:17;;;;;;;;;;;0.20;72.10;;;;;;5073764;28;20032;-75
2023/12/20 08:41:43;;;;;;;21.38;10.43;;;0.30;71.90;;;;;;5072170;28;19927;-72
2023/12/20 08:44:10;;;;;;;12.73;9.30;;;0.40;71.70;;;;;;5072907;28;20044;-73
2023/12/20 08:46:36;;;;;;;14.00;10.68;;;0.50;71.70;;;;;;5072673;28;20047;-73
2023/12/20 08:49:02;;;;;;;18.92;11.40;;;0.60;71.50;;;;;;5055949;28;20032;-73
2023/12/20 08:51:29;;;;;;;;;;;0.70;71.90;;;;;;5072790;28;20041;-72
2023/12/20 08:53:55;;;;;;;29.25;15.60;;;0.80;72.60;;;;;;5074176;28;20267;-75
2023/12/20 08:56:21;;;;;;;43.15;15.07;;;0.90;72.80;;;;;;5073695;28;20512;-75
2023/12/20 08:58:47;;;;;;;28.98;14.25;;;1.00;72.80;;;;;;5073568;28;20119;-75
2023/12/20 09:01:14;;;;;;;27.05;15.68;;;1.20;73.10;;;;;;5055006;28;20119;-73
2023/12/20 09:03:40;;;;;;;19.42;11.77;;;2.20;71.10;;;;;;5072261;28;20436;-75
2023/12/20 09:06:06;;;;;;;;;;;4.30;66.70;;;;;;5072595;28;20502;-73
2023/12/20 09:08:33;;;;;;;16.58;9.88;;;5.80;59.80;;;;;;5072463;28;20285;-72
2023/12/20 09:11:00;;;;;;;11.00;6.82;;;5.80;59.40;;;;;;5072897;28;20032;-73
2023/12/20 09:13:31;;;;;;;16.88;9.35;;;6.10;58.90;;;;;;5073342;28;20059;-75
2023/12/20 09:15:58;;;;;;;11.88;9.38;;;6.30;57.50;;;;;;5073251;28;20075;-75
2023/12/20 09:18:24;;;;;;;14.25;7.60;;;6.50;57.20;;;;;;5072212;28;20376;-73
2023/12/20 09:20:50;;;;;;;11.10;7.50;;;7.30;56.70;;;;;;5071283;28;20059;-74
2023/12/20 09:23:17;;;;;;;13.73;9.45;;;7.70;54.90;;;;;;5072143;28;20052;-73
2023/12/20 09:25:43;;;;;;;19.80;6.57;;;7.60;55.30;;;;;;5072637;28;20048;-74
2023/12/20 09:28:09;;;;;;;15.50;6.43;;;7.20;56.60;;;;;;5072132;28;20024;-74
2023/12/20 09:30:39;;;;;;;;;;;6.70;58.50;;;;;;5071525;28;20032;-72
2023/12/20 09:33:07;;;;;;;16.45;7.47;;;7.20;59.40;;;;;;5073320;28;19983;-75
2023/12/20 09:35:33;;;;;;;4.57;3.38;;;7.40;57.00;;;;;;5071479;28;20122;-72
2023/12/20 09:37:59;;;;;;;6.93;3.90;;;7.30;58.40;;;;;;5055007;28;20059;-74
2023/12/20 09:40:26;;;;;;;7.07;4.00;;;7.50;58.50;;;;;;5070860;28;20084;-72
2023/12/20 09:43:32;;;;;;;6.97;3.80;;;7.90;57.90;;;;;;5073006;28;20032;-74
2023/12/20 09:46:02;;;;;;;9.25;6.88;;;8.90;54.90;;;;;;5072134;28;20398;-72
2023/12/20 09:48:28;;;;;;;7.78;6.32;;;8.80;53.30;;;;;;5071749;28;20053;-72
2023/12/20 09:50:56;;;;;;;8.05;4.10;;;8.70;54.80;;;;;;5054205;28;20083;-74
2023/12/20 09:53:29;;;;;;;11.57;7.95;;;8.50;55.80;;;;;;5071749;28;20032;-72
2023/12/20 09:56:16;;;;;;;11.60;7.15;;;9.00;54.90;;;;;;5071250;28;20052;-72
2023/12/20 09:58:42;;;;;;;11.75;5.95;;;9.10;53.70;;;;;;5071347;28;20117;-74
2023/12/20 10:01:08;;;;;;;10.32;5.07;;;8.70;54.80;;;;;;5072032;28;20452;-71
2023/12/20 10:03:35;;;;;;;11.43;5.80;;;9.20;54.70;;;;;;5072506;28;20090;-72
2023/12/20 10:06:01;;;;;;;6.13;4.00;;;10.00;53.50;;;;;;5070905;28;20033;-72
2023/12/20 10:08:29;;;;;;;8.48;4.40;;;10.80;50.70;;;;;;5071212;28;20033;-73
2023/12/20 10:10:57;;;;;;;8.93;6.43;;;11.10;50.20;;;;;;5071906;28;20059;-74
2023/12/20 10:13:23;;;;;;;10.30;4.63;;;10.40;51.00;;;;;;5072543;28;20406;-75
2023/12/20 10:15:50;;;;;;;9.73;4.10;;;10.70;52.00;;;;;;5070823;28;20029;-71
2023/12/20 10:18:17;;;;;;;23.75;9.30;;;12.30;47.30;;;;;;5070789;28;20036;-74
2023/12/20 10:20:43;;;;;;;9.45;5.18;;;12.30;46.30;;;;;;5071644;28;20032;-72
2023/12/20 10:23:10;;;;;;;9.52;7.15;;;11.70;47.90;;;;;;5072244;28;20037;-71
2023/12/20 10:25:36;;;;;;;6.03;3.42;;;11.50;49.50;;;;;;5053977;28;20497;-72
2023/12/20 10:28:23;;;;;;;4.10;2.83;;;12.10;47.70;;;;;;5071209;28;20024;-71
2023/12/20 10:30:49;;;;;;;;;;;11.40;49.00;;;;;;5070662;28;20035;-72
2023/12/20 10:33:41;;;;;;;9.48;6.85;;;11.40;49.60;;;;;;5072464;28;19920;-74
2023/12/20 10:36:09;;;;;;;8.52;5.95;;;10.90;50.80;;;;;;5072034;28;20028;-72
2023/12/20 10:38:38;;;;;;;4.40;3.97;;;11.20;50.50;;;;;;5070835;28;20171;-72
2023/12/20 10:41:07;;;;;;;7.00;5.10;;;11.70;49.80;;;;;;5070089;28;20049;-74
2023/12/20 10:43:34;;;;;;;10.38;5.97;;;11.90;49.50;;;;;;5070914;28;20036;-74
2023/12/20 10:46:01;;;;;;;5.57;2.58;;;12.70;47.70;;;;;;5070639;28;20039;-74
2023/12/20 10:48:29;;;;;;;6.10;2.50;;;12.60;45.90;;;;;;5070887;28;20389;-71
2023/12/20 10:50:56;;;;;;;1.70;1.58;;;12.30;44.50;;;;;;5070144;28;20037;-75
2023/12/20 10:53:25;;;;;;;2.03;1.77;;;13.20;43.10;;;;;;5070883;28;20386;-74
2023/12/20 10:56:12;;;;;;;11.63;1.40;;;14.40;38.30;;;;;;5070635;28;20028;-74
2023/12/20 10:58:43;;;;;;;3.33;1.77;;;14.30;38.30;;;;;;5074731;28;20094;-72
2023/12/20 11:01:09;;;;;;;3.20;0.98;;;14.10;37.80;;;;;;5074266;28;20048;-74
2023/12/20 11:06:59;;;;;;;2.33;1.25;;;16.30;34.20;;;;;;5075615;28;20173;-74
2023/12/20 11:09:31;;;;;;;3.70;2.20;;;16.90;32.50;;;;;;5074732;28;20043;-74
2023/12/20 11:12:37;;;;;;;4.18;2.25;;;15.90;34.30;;;;;;5074058;28;20097;-72
2023/12/20 11:15:04;;;;;;;2.33;1.23;;;14.90;35.90;;;;;;5074524;28;20047;-74
2023/12/20 11:17:32;;;;;;;5.70;1.77;;;14.60;36.60;;;;;;5075530;28;20029;-72
2023/12/20 11:19:59;;;;;;;2.10;1.38;;;14.40;37.70;;;;;;5075988;28;20067;-72
2023/12/20 11:22:26;;;;;;;3.28;1.27;;;14.10;39.20;;;;;;5075346;28;20040;-72
2023/12/20 11:25:11;;;;;;;6.25;3.20;;;13.70;40.00;;;;;;5057399;28;20066;-73
2023/12/20 11:27:42;;;;;;;6.35;4.10;;;13.10;41.00;;;;;;5075757;28;20025;-72
2023/12/20 11:30:09;;;;;;;4.05;2.53;;;12.80;42.10;;;;;;5073728;28;20032;-74
2023/12/20 11:32:37;;;;;;;7.38;5.20;;;12.80;42.20;;;;;;5075438;28;20024;-72
2023/12/20 11:35:23;;;;;;;9.43;5.05;;;12.70;42.50;;;;;;5057492;28;20082;-74
2023/12/20 11:37:51;;;;;;;9.02;5.40;;;12.00;44.20;;;;;;5074116;28;20068;-74
2023/12/20 11:40:18;;;;;;;5.93;3.25;;;11.40;45.60;;;;;;5073158;28;20107;-75
2023/12/20 11:42:49;;;;;;;6.90;4.07;;;11.10;46.20;;;;;;5075225;28;20036;-72
2023/12/20 11:45:21;;;;;;;5.82;3.40;;;10.90;47.40;;;;;;5057179;28;20051;-72
2023/12/20 11:50:33;;;;;;;8.50;4.60;;;10.70;48.40;;;;;;5074313;28;20038;-72
2023/12/20 11:52:59;;;;;;;7.35;6.15;;;10.70;48.50;;;;;;5074020;28;20115;-74
2023/12/20 11:55:25;;;;;;;6.57;5.47;;;10.80;48.50;;;;;;5074764;28;20115;-72
2023/12/20 11:57:52;;;;;;;7.28;4.93;;;11.30;47.50;;;;;;5074846;28;20069;-74
2023/12/20 12:00:20;;;;;;;7.10;5.32;;;12.60;44.20;;;;;;5056235;28;20032;-75
2023/12/20 12:03:14;;;;;;;7.72;4.55;;;12.20;43.40;;;;;;5073732;28;20031;-72
2023/12/20 12:05:41;;;;;;;5.25;3.20;;;11.40;45.30;;;;;;5056372;28;20085;-74
2023/12/20 12:08:07;;;;;;;8.25;3.60;;;10.90;47.20;;;;;;5074504;28;20040;-74
2023/12/20 12:10:33;;;;;;;4.32;3.15;;;10.60;48.10;;;;;;5072590;28;20033;-72
2023/12/20 12:13:00;;;;;;;;;;;10.50;48.30;;;;;;5075515;28;20043;-74
2023/12/20 12:15:26;;;;;;;3.97;3.22;;;10.20;48.20;;;;;;5089759;28;19962;-74
2023/12/20 12:18:15;;;;;;;10.57;5.18;;;10.10;48.30;;;;;;5073459;28;20547;-72
2023/12/20 12:20:41;;;;;;;6.40;4.18;;;10.00;49.00;;;;;;5072675;28;20033;-74
2023/12/20 12:23:07;;;;;;;8.32;4.53;;;9.90;48.80;;;;;;5073216;28;20086;-74
2023/12/20 12:25:36;;;;;;;5.70;2.28;;;9.80;49.60;;;;;;5072754;28;20044;-73
2023/12/20 12:28:03;;;;;;;6.88;3.38;;;9.70;49.70;;;;;;5074466;28;20078;-72
2023/12/20 12:30:29;;;;;;;7.95;5.07;;;9.60;49.80;;;;;;5072308;28;20066;-72
2023/12/20 12:32:57;;;;;;;8.60;4.35;;;9.50;50.50;;;;;;5074282;28;20074;-74
2023/12/20 12:35:23;;;;;;;7.68;3.22;;;9.40;50.10;;;;;;5072714;28;20035;-73
2023/12/20 12:37:50;;;;;;;11.90;2.85;;;9.30;51.10;;;;;;5073090;28;20501;-72
2023/12/20 12:40:17;;;;;;;3.05;2.22;;;9.20;51.30;;;;;;5072136;28;20040;-72
2023/12/20 12:42:45;;;;;;;6.35;3.83;;;9.20;51.50;;;;;;5074141;28;20048;-72
2023/12/20 12:45:11;;;;;;;3.95;2.67;;;9.10;51.90;;;;;;5072150;28;20451;-74
2023/12/20 12:47:38;;;;;;;8.82;6.00;;;9.10;51.90;;;;;;5063657;28;20060;-74
2023/12/20 12:50:05;;;;;;;8.23;4.70;;;9.00;51.80;;;;;;5035787;28;20044;-72
2023/12/20 12:52:31;;;;;;;5.38;2.97;;;9.00;51.80;;;;;;5063800;28;20431;-74
2023/12/20 12:54:57;;;;;;;6.72;4.03;;;8.90;52.50;;;;;;5053135;28;20029;-74